createdAt,value
2018-05-04T00:01:48.432Z,102028.16
2018-05-04T00:04:51.837Z,102033.27
2018-05-04T00:07:55.237Z,102033.60
2018-05-04T00:10:58.627Z,102040.09
2018-05-04T00:14:02.033Z,102038.08
2018-05-04T00:17:05.324Z,102043.48
2018-05-04T00:20:08.830Z,102043.14
2018-05-04T00:23:12.129Z,102057.13
2018-05-04T00:26:15.436Z,102050.52
2018-05-04T00:29:18.831Z,102057.23
2018-05-04T00:32:22.229Z,102055.41
2018-05-04T00:35:25.620Z,102064.84
2018-05-04T00:38:29.026Z,102068.23
2018-05-04T00:41:32.313Z,102072.84
2018-05-04T00:44:35.632Z,102069.52
2018-05-04T00:47:38.928Z,102070.33
2018-05-04T00:50:42.331Z,102076.08
2018-05-04T00:54:03.424Z,102073.86
2018-05-04T00:57:06.828Z,102080.33
2018-05-04T01:00:10.242Z,102077.61
2018-05-04T01:03:13.541Z,102077.68
2018-05-04T01:06:16.842Z,102080.96
2018-05-04T01:09:20.237Z,102081.13
2018-05-04T01:12:23.543Z,102084.00
2018-05-04T01:15:26.923Z,102089.72
2018-05-04T01:18:30.217Z,102093.91
2018-05-04T01:21:33.627Z,102088.22
2018-05-04T01:24:36.948Z,102090.05
2018-05-04T01:27:40.245Z,102092.30
2018-05-04T01:30:45.058Z,102094.61
2018-05-04T01:33:48.457Z,102088.67
2018-05-04T01:36:51.760Z,102093.06
2018-05-04T01:39:55.060Z,102094.33
2018-05-04T01:42:58.358Z,102095.73
2018-05-04T01:46:01.670Z,102095.16
2018-05-04T01:49:04.968Z,102094.13
2018-05-04T01:52:08.285Z,102099.02
2018-05-04T01:55:12.351Z,102103.14
2018-05-04T01:58:15.752Z,102111.94
2018-05-04T02:01:19.056Z,102110.28
2018-05-04T02:04:22.451Z,102108.45
2018-05-04T02:07:25.853Z,102107.93
2018-05-04T02:10:29.149Z,102107.34
2018-05-04T02:13:32.550Z,102112.98
2018-05-04T02:16:35.956Z,102112.82
2018-05-04T02:19:39.256Z,102114.44
2018-05-04T02:22:42.558Z,102109.72
2018-05-04T02:25:45.954Z,102113.13
2018-05-04T02:28:49.339Z,102117.25
2018-05-04T02:31:52.742Z,102126.51
2018-05-04T02:34:56.149Z,102125.91
2018-05-04T02:37:59.553Z,102118.38
2018-05-04T02:41:02.945Z,102116.15
2018-05-04T02:44:06.337Z,102127.41
2018-05-04T02:47:09.747Z,102138.32
2018-05-04T02:50:13.054Z,102139.27
2018-05-04T02:53:16.365Z,102143.09
2018-05-04T02:56:19.747Z,102142.58
2018-05-04T02:59:23.063Z,102145.61
2018-05-04T03:02:27.219Z,102156.34
2018-05-04T03:05:30.536Z,102153.88
2018-05-04T03:08:33.846Z,102157.67
2018-05-04T03:11:37.158Z,102156.23
2018-05-04T03:14:40.504Z,102165.47
2018-05-04T03:17:44.669Z,102164.06
2018-05-04T03:20:47.969Z,102171.63
2018-05-04T03:23:51.379Z,102168.66
2018-05-04T03:26:54.757Z,102173.73
2018-05-04T03:29:58.076Z,102171.30
2018-05-04T03:33:01.462Z,102184.45
2018-05-04T03:36:04.780Z,102187.23
2018-05-04T03:39:08.153Z,102191.22
2018-05-04T03:42:12.254Z,102195.00
2018-05-04T03:45:15.598Z,102196.81
2018-05-04T03:48:19.663Z,102190.86
2018-05-04T03:51:22.986Z,102190.45
2018-05-04T03:54:26.381Z,102188.40
2018-05-04T03:57:47.580Z,102189.84
2018-05-04T04:01:08.851Z,102190.66
2018-05-04T04:04:13.442Z,102194.88
2018-05-04T04:07:16.740Z,102196.14
2018-05-04T04:10:20.055Z,102195.87
2018-05-04T04:13:23.436Z,102202.16
2018-05-04T04:16:26.754Z,102199.11
2018-05-04T04:19:30.052Z,102205.56
2018-05-04T04:22:33.450Z,102209.28
2018-05-04T04:25:36.760Z,102211.31
2018-05-04T04:28:40.064Z,102206.64
2018-05-04T04:31:43.437Z,102219.02
2018-05-04T04:34:46.750Z,102216.27
2018-05-04T04:37:50.066Z,102217.47
2018-05-04T04:40:53.391Z,102219.56
2018-05-04T04:43:56.717Z,102222.58
2018-05-04T04:47:00.124Z,102224.08
2018-05-04T04:50:03.428Z,102216.70
2018-05-04T04:53:06.817Z,102215.88
2018-05-04T04:56:10.232Z,102213.23
2018-05-04T04:59:13.542Z,102216.39
2018-05-04T05:02:18.419Z,102215.63
2018-05-04T05:05:21.736Z,102217.06
2018-05-04T05:08:25.060Z,102210.44
2018-05-04T05:11:28.363Z,102210.97
2018-05-04T05:14:31.659Z,102209.64
2018-05-04T05:17:34.952Z,102219.09
2018-05-04T05:20:38.258Z,102226.27
2018-05-04T05:23:41.557Z,102236.49
2018-05-04T05:26:44.868Z,102237.20
2018-05-04T05:29:48.177Z,102240.41
2018-05-04T05:32:52.241Z,102232.26
2018-05-04T05:35:55.693Z,102230.08
2018-05-04T05:38:59.756Z,102223.78
2018-05-04T05:42:03.063Z,102218.73
2018-05-04T05:45:06.434Z,102221.80
2018-05-04T05:48:09.745Z,102224.20
2018-05-04T05:51:13.158Z,102221.86
2018-05-04T05:54:16.524Z,102224.65
2018-05-04T05:57:19.840Z,102230.34
2018-05-04T06:00:23.185Z,102233.59
2018-05-04T06:03:27.275Z,102234.39
2018-05-04T06:06:30.568Z,102236.45
2018-05-04T06:09:33.872Z,102238.42
2018-05-04T06:12:37.199Z,102244.17
2018-05-04T06:15:40.528Z,102246.02
2018-05-04T06:18:43.874Z,102247.42
2018-05-04T06:21:47.258Z,102251.57
2018-05-04T06:24:50.561Z,102247.30
2018-05-04T06:27:53.960Z,102237.34
2018-05-04T06:30:57.423Z,102243.68
2018-05-04T06:34:00.720Z,102245.62
2018-05-04T06:37:04.123Z,102247.73
2018-05-04T06:40:07.486Z,102255.16
2018-05-04T06:43:11.587Z,102258.86
2018-05-04T06:46:14.897Z,102262.68
2018-05-04T06:49:18.291Z,102257.88
2018-05-04T06:52:21.616Z,102258.50
2018-05-04T06:55:25.693Z,102263.28
2018-05-04T06:58:29.047Z,102255.48
2018-05-04T07:01:32.360Z,102244.57
2018-05-04T07:04:35.691Z,102249.61
2018-05-04T07:07:39.090Z,102251.67
2018-05-04T07:10:42.489Z,102250.80
2018-05-04T07:13:45.800Z,102258.79
2018-05-04T07:16:49.139Z,102255.27
2018-05-04T07:19:52.455Z,102262.69
2018-05-04T07:22:55.798Z,102268.58
2018-05-04T07:25:59.180Z,102269.95
2018-05-04T07:29:02.577Z,102268.70
2018-05-04T07:32:05.984Z,102266.98
2018-05-04T07:35:09.398Z,102262.95
2018-05-04T07:38:12.706Z,102270.95
2018-05-04T07:41:16.012Z,102266.41
2018-05-04T07:44:20.089Z,102267.80
2018-05-04T07:47:23.490Z,102266.12
2018-05-04T07:50:26.814Z,102269.80
2018-05-04T07:53:30.145Z,102270.78
2018-05-04T07:56:37.585Z,102260.31
2018-05-04T07:59:40.918Z,102267.39
2018-05-04T08:02:45.099Z,102267.24
2018-05-04T08:05:48.497Z,102271.17
2018-05-04T08:08:51.854Z,102274.45
2018-05-04T08:11:55.161Z,102276.48
2018-05-04T08:14:58.486Z,102274.13
2018-05-04T08:18:01.820Z,102281.86
2018-05-04T08:21:05.259Z,102285.83
2018-05-04T08:24:08.573Z,102284.10
2018-05-04T08:27:11.984Z,102290.59
2018-05-04T08:30:15.295Z,102293.31
2018-05-04T08:33:19.314Z,102292.67
2018-05-04T08:36:22.761Z,102292.06
2018-05-04T08:39:26.098Z,102285.73
2018-05-04T08:42:29.514Z,102287.43
2018-05-04T08:45:32.834Z,102287.42
2018-05-04T08:48:36.199Z,102289.11
2018-05-04T08:51:39.516Z,102290.01
2018-05-04T08:54:42.817Z,102284.42
2018-05-04T08:57:46.120Z,102293.59
2018-05-04T09:00:49.489Z,102289.06
2018-05-04T09:03:52.888Z,102287.74
2018-05-04T09:06:56.289Z,102285.94
2018-05-04T09:09:59.686Z,102285.16
2018-05-04T09:13:03.097Z,102281.37
2018-05-04T09:16:06.502Z,102287.60
2018-05-04T09:19:09.922Z,102282.68
2018-05-04T09:22:14.059Z,102290.00
2018-05-04T09:25:17.472Z,102290.28
2018-05-04T09:28:20.750Z,102289.77
2018-05-04T09:31:24.840Z,102298.52
2018-05-04T09:34:28.219Z,102299.45
2018-05-04T09:37:31.683Z,102303.75
2018-05-04T09:40:35.022Z,102314.30
2018-05-04T09:43:38.447Z,102305.89
2018-05-04T09:46:41.885Z,102310.55
2018-05-04T09:49:45.222Z,102307.15
2018-05-04T09:52:48.653Z,102302.62
2018-05-04T09:55:52.108Z,102311.95
2018-05-04T09:58:55.410Z,102317.70
2018-05-04T10:01:58.882Z,102299.57
2018-05-04T10:05:02.321Z,102304.60
2018-05-04T10:08:05.725Z,102300.44
2018-05-04T10:11:09.135Z,102307.34
2018-05-04T10:14:12.447Z,102306.72
2018-05-04T10:17:15.747Z,102310.11
2018-05-04T10:20:19.116Z,102312.95
2018-05-04T10:23:22.628Z,102309.45
2018-05-04T10:26:26.034Z,102304.59
2018-05-04T10:29:29.427Z,102300.86
2018-05-04T10:32:32.756Z,102295.39
2018-05-04T10:35:36.830Z,102301.34
2018-05-04T10:38:40.273Z,102296.75
2018-05-04T10:41:43.636Z,102286.30
2018-05-04T10:44:46.943Z,102294.08
2018-05-04T10:47:50.265Z,102289.28
2018-05-04T10:50:53.609Z,102281.25
2018-05-04T10:53:56.912Z,102295.00
2018-05-04T10:57:00.220Z,102290.61
2018-05-04T11:00:03.618Z,102296.40
2018-05-04T11:03:06.969Z,102292.33
2018-05-04T11:06:11.051Z,102295.64
2018-05-04T11:09:14.399Z,102296.84
2018-05-04T11:12:17.741Z,102294.67
2018-05-04T11:15:21.068Z,102289.86
2018-05-04T11:18:24.496Z,102294.92
2018-05-04T11:21:27.869Z,102292.50
2018-05-04T11:24:32.693Z,102290.19
2018-05-04T11:27:36.041Z,102291.98
2018-05-04T11:30:39.463Z,102292.06
2018-05-04T11:33:42.769Z,102297.67
2018-05-04T11:36:46.164Z,102296.71
2018-05-04T11:39:49.582Z,102302.04
2018-05-04T11:42:54.409Z,102308.02
2018-05-04T11:45:57.722Z,102301.28
2018-05-04T11:49:01.024Z,102303.95
2018-05-04T11:52:04.440Z,102297.79
2018-05-04T11:55:08.544Z,102297.21
2018-05-04T11:58:11.848Z,102298.98
2018-05-04T12:01:16.047Z,102300.65
2018-05-04T12:04:19.454Z,102309.13
2018-05-04T12:07:23.561Z,102296.17
2018-05-04T12:10:26.960Z,102297.98
2018-05-04T12:13:30.373Z,102303.84
2018-05-04T12:16:33.738Z,102303.61
2018-05-04T12:19:37.105Z,102299.77
2018-05-04T12:22:40.419Z,102307.09
2018-05-04T12:25:43.728Z,102304.74
2018-05-04T12:28:47.051Z,102305.80
2018-05-04T12:31:50.360Z,102308.34
2018-05-04T12:34:55.330Z,102315.94
2018-05-04T12:37:58.641Z,102315.99
2018-05-04T12:41:01.956Z,102316.41
2018-05-04T12:44:05.262Z,102311.09
2018-05-04T12:47:08.592Z,102318.25
2018-05-04T12:50:11.898Z,102319.62
2018-05-04T12:53:15.215Z,102314.73
2018-05-04T12:56:19.291Z,102320.16
2018-05-04T12:59:22.600Z,102319.72
2018-05-04T13:02:26.696Z,102316.58
2018-05-04T13:05:30.094Z,102316.53
2018-05-04T13:08:33.491Z,102310.08
2018-05-04T13:11:36.804Z,102306.69
2018-05-04T13:14:40.122Z,102303.59
2018-05-04T13:17:44.213Z,102313.51
2018-05-04T13:20:47.634Z,102306.11
2018-05-04T13:23:51.720Z,102302.64
2018-05-04T13:26:55.126Z,102309.41
2018-05-04T13:29:58.528Z,102302.91
2018-05-04T13:33:01.929Z,102304.33
2018-05-04T13:36:05.317Z,102301.52
2018-05-04T13:39:08.651Z,102305.56
2018-05-04T13:42:12.020Z,102313.17
2018-05-04T13:45:15.427Z,102300.50
2018-05-04T13:48:18.761Z,102301.96
2018-05-04T13:51:22.875Z,102305.41
2018-05-04T13:54:26.183Z,102300.86
2018-05-04T13:57:30.277Z,102302.31
2018-05-04T14:00:33.654Z,102299.54
2018-05-04T14:03:36.971Z,102294.94
2018-05-04T14:06:40.296Z,102289.52
2018-05-04T14:09:44.477Z,102290.02
2018-05-04T14:12:47.999Z,102287.04
2018-05-04T14:15:51.263Z,102282.26
2018-05-04T14:18:54.578Z,102279.52
2018-05-04T14:21:58.793Z,102276.60
2018-05-04T14:25:02.122Z,102271.39
2018-05-04T14:28:06.219Z,102272.37
2018-05-04T14:31:09.635Z,102274.30
2018-05-04T14:34:13.710Z,102276.80
2018-05-04T14:37:17.108Z,102271.95
2018-05-04T14:40:20.407Z,102273.45
2018-05-04T14:43:23.818Z,102266.37
2018-05-04T14:46:27.142Z,102273.86
2018-05-04T14:49:31.258Z,102275.23
2018-05-04T14:52:35.333Z,102284.11
2018-05-04T14:55:38.652Z,102282.89
2018-05-04T14:58:42.074Z,102292.52
2018-05-04T15:01:45.424Z,102291.92
2018-05-04T15:04:48.738Z,102287.08
2018-05-04T15:07:52.141Z,102293.43
2018-05-04T15:10:55.491Z,102308.61
2018-05-04T15:13:58.825Z,102302.77
2018-05-04T15:17:02.152Z,102303.04
2018-05-04T15:20:06.229Z,102309.17
2018-05-04T15:23:09.650Z,102310.19
2018-05-04T15:26:12.970Z,102307.71
2018-05-04T15:29:16.364Z,102312.23
2018-05-04T15:32:19.701Z,102317.09
2018-05-04T15:35:23.059Z,102323.23
2018-05-04T15:38:26.369Z,102314.41
2018-05-04T15:41:29.694Z,102312.66
2018-05-04T15:44:33.013Z,102310.34
2018-05-04T15:47:36.349Z,102312.27
2018-05-04T15:50:45.229Z,102303.52
2018-05-04T15:53:49.381Z,102313.33
2018-05-04T15:56:52.697Z,102308.08
2018-05-04T15:59:56.854Z,102307.59
2018-05-04T16:03:00.298Z,102303.47
2018-05-04T16:06:03.635Z,102313.53
2018-05-04T16:09:06.934Z,102317.47
2018-05-04T16:12:11.109Z,102313.04
2018-05-04T16:15:14.434Z,102308.09
2018-05-04T16:18:18.529Z,102313.33
2018-05-04T16:21:21.848Z,102314.35
2018-05-04T16:24:26.074Z,102304.41
2018-05-04T16:27:30.167Z,102311.81
2018-05-04T16:30:33.486Z,102310.62
2018-05-04T16:33:36.828Z,102309.20
2018-05-04T16:36:40.147Z,102306.84
2018-05-04T16:39:43.448Z,102305.72
2018-05-04T16:42:46.863Z,102308.98
2018-05-04T16:45:50.257Z,102307.78
2018-05-04T16:48:59.030Z,102310.20
2018-05-04T16:52:03.202Z,102311.16
2018-05-04T16:55:06.575Z,102306.44
2018-05-04T16:58:09.948Z,102312.13
2018-05-04T17:01:13.324Z,102308.48
2018-05-04T17:04:17.684Z,102316.64
2018-05-04T17:07:21.054Z,102320.05
2018-05-04T17:10:25.307Z,102319.25
2018-05-04T17:13:28.648Z,102321.37
2018-05-04T17:16:31.995Z,102320.23
2018-05-04T17:19:35.324Z,102322.95
2018-05-04T17:22:38.647Z,102324.55
2018-05-04T17:25:41.967Z,102324.95
2018-05-04T17:28:46.069Z,102324.64
2018-05-04T17:31:49.380Z,102333.36
2018-05-04T17:34:53.461Z,102331.26
2018-05-04T17:37:56.863Z,102339.63
2018-05-04T17:41:00.193Z,102347.34
2018-05-04T17:44:04.377Z,102346.66
2018-05-04T17:47:07.779Z,102343.53
2018-05-04T17:50:11.198Z,102341.80
2018-05-04T17:53:15.326Z,102339.63
2018-05-04T17:56:18.689Z,102343.36
2018-05-04T17:59:21.993Z,102351.93
2018-05-04T18:02:25.394Z,102357.34
2018-05-04T18:05:28.801Z,102355.85
2018-05-04T18:08:32.199Z,102358.41
2018-05-04T18:11:35.594Z,102361.67
2018-05-04T18:14:39.004Z,102366.20
2018-05-04T18:17:43.115Z,102365.80
2018-05-04T18:20:46.443Z,102364.95
2018-05-04T18:23:50.537Z,102377.33
2018-05-04T18:26:53.858Z,102380.89
2018-05-04T18:29:57.952Z,102382.25
2018-05-04T18:33:01.356Z,102381.34
2018-05-04T18:36:04.629Z,102394.81
2018-05-04T18:39:07.944Z,102393.09
2018-05-04T18:42:11.287Z,102394.73
2018-05-04T18:45:14.604Z,102395.67
2018-05-04T18:48:18.138Z,102393.16
2018-05-04T18:51:22.203Z,102399.48
2018-05-04T18:54:25.558Z,102401.41
2018-05-04T18:57:28.909Z,102404.86
2018-05-04T19:00:32.228Z,102419.67
2018-05-04T19:03:35.572Z,102424.71
2018-05-04T19:06:38.890Z,102431.69
2018-05-04T19:09:42.965Z,102440.34
2018-05-04T19:12:46.278Z,102438.95
2018-05-04T19:15:49.611Z,102447.17
2018-05-04T19:18:52.956Z,102452.00
2018-05-04T19:21:56.354Z,102456.70
2018-05-04T19:24:59.657Z,102455.44
2018-05-04T19:28:02.986Z,102460.15
2018-05-04T19:31:06.359Z,102468.38
2018-05-04T19:34:09.732Z,102468.50
2018-05-04T19:37:13.057Z,102474.47
2018-05-04T19:40:16.467Z,102475.21
2018-05-04T19:43:19.853Z,102476.78
2018-05-04T19:46:23.179Z,102478.52
2018-05-04T19:49:27.253Z,102485.42
2018-05-04T19:52:30.593Z,102487.67
2018-05-04T19:55:34.692Z,102493.19
2018-05-04T19:58:38.175Z,102501.99
2018-05-04T20:01:41.502Z,102503.95
2018-05-04T20:04:44.889Z,102504.06
2018-05-04T20:07:48.293Z,102508.52
2018-05-04T20:10:51.644Z,102507.92
2018-05-04T20:13:55.004Z,102512.53
2018-05-04T20:16:59.239Z,102513.83
2018-05-04T20:20:03.330Z,102513.39
2018-05-04T20:23:06.642Z,102519.45
2018-05-04T20:26:10.737Z,102511.29
2018-05-04T20:29:14.052Z,102511.77
2018-05-04T20:32:17.427Z,102510.49
2018-05-04T20:35:20.828Z,102514.80
2018-05-04T20:38:24.229Z,102517.59
2018-05-04T20:41:27.572Z,102518.69
2018-05-04T20:44:30.892Z,102515.97
2018-05-04T20:47:34.235Z,102511.08
2018-05-04T20:50:37.578Z,102509.55
2018-05-04T20:53:40.913Z,102511.66
2018-05-04T20:56:44.235Z,102508.61
2018-05-04T20:59:47.611Z,102517.50
2018-05-04T21:02:51.651Z,102518.98
2018-05-04T21:05:56.474Z,102521.45
2018-05-04T21:08:59.789Z,102522.17
2018-05-04T21:12:03.857Z,102519.78
2018-05-04T21:15:07.158Z,102523.32
2018-05-04T21:18:10.568Z,102527.30
2018-05-04T21:21:13.896Z,102532.80
2018-05-04T21:24:17.225Z,102533.41
2018-05-04T21:27:20.583Z,102523.56
2018-05-04T21:30:24.700Z,102525.55
2018-05-04T21:33:28.014Z,102535.66
2018-05-04T21:36:32.103Z,102532.13
2018-05-04T21:39:35.440Z,102535.45
2018-05-04T21:42:39.500Z,102535.42
2018-05-04T21:45:42.811Z,102543.59
2018-05-04T21:48:46.220Z,102548.92
2018-05-04T21:51:50.369Z,102553.09
2018-05-04T21:54:53.641Z,102543.55
2018-05-04T21:57:57.739Z,102544.06
2018-05-04T22:01:01.037Z,102540.74
2018-05-04T22:04:04.333Z,102541.66
2018-05-04T22:07:07.728Z,102537.83
2018-05-04T22:10:11.051Z,102535.72
2018-05-04T22:13:14.390Z,102534.36
2018-05-04T22:16:17.712Z,102533.41
2018-05-04T22:19:21.014Z,102539.27
2018-05-04T22:22:24.346Z,102538.22
2018-05-04T22:25:27.656Z,102540.78
2018-05-04T22:28:31.875Z,102542.86
2018-05-04T22:31:35.179Z,102543.09
2018-05-04T22:34:39.271Z,102540.65
2018-05-04T22:37:42.649Z,102544.59
2018-05-04T22:40:46.078Z,102543.22
2018-05-04T22:43:49.427Z,102549.34
2018-05-04T22:46:52.746Z,102547.03
2018-05-04T22:49:56.079Z,102549.08
2018-05-04T22:52:59.466Z,102562.34
2018-05-04T22:56:02.869Z,102556.45
2018-05-04T22:59:06.274Z,102560.69
2018-05-04T23:02:09.703Z,102561.36
2018-05-04T23:05:13.022Z,102568.80
2018-05-04T23:08:16.337Z,102583.91
2018-05-04T23:11:19.978Z,102587.36
2018-05-04T23:14:23.408Z,102584.77
2018-05-04T23:17:26.808Z,102577.92
2018-05-04T23:20:30.131Z,102580.98
2018-05-04T23:23:33.440Z,102582.97
2018-05-04T23:26:36.752Z,102585.89
2018-05-04T23:29:40.070Z,102585.14
2018-05-04T23:32:43.399Z,102573.05
2018-05-04T23:35:46.712Z,102572.20
2018-05-04T23:38:50.026Z,102578.33
2018-05-04T23:41:53.346Z,102574.88
2018-05-04T23:44:56.656Z,102570.31
2018-05-04T23:47:59.972Z,102572.39
2018-05-04T23:51:04.041Z,102581.20
2018-05-04T23:54:07.365Z,102578.84
2018-05-04T23:57:10.676Z,102577.14
